Time;durP1;ratioP1;P1;durP2;ratioP2;P2;SDS_P1;SDS_P2;PMS_P1;PMS_P2;Temp;Humidity;BMP_temperature;BMP_pressure;BME280_temperature;BME280_humidity;BME280_pressure;Samples;Min_cycle;Max_cycle;Signal;HPM_P1;HPM_P2
2023/11/20 00:01:34;;;;;;;15.80;4.70;;;;;;;8.27;100.00;99737.46;110746;1205;140084;-71
2023/11/20 00:04:00;;;;;;;19.20;4.90;;;;;;;8.26;100.00;99737.30;110858;1206;97618;-71
2023/11/20 00:06:26;;;;;;;22.10;4.60;;;;;;;8.29;100.00;99741.98;110892;1206;139776;-72
2023/11/20 00:08:53;;;;;;;21.30;4.70;;;;;;;8.30;100.00;99736.07;110992;1210;100325;-71
2023/11/20 00:11:19;;;;;;;22.00;4.50;;;;;;;8.29;100.00;99736.79;110976;1209;97668;-71
2023/11/20 00:13:45;;;;;;;16.90;4.20;;;;;;;8.29;100.00;99739.64;110843;1211;139455;-71
2023/11/20 00:16:11;;;;;;;15.90;4.60;;;;;;;8.30;100.00;99741.73;111031;1209;110956;-71
2023/11/20 00:18:38;;;;;;;19.60;4.50;;;;;;;8.31;100.00;99742.58;110719;1208;139142;-71
2023/11/20 00:21:03;;;;;;;12.30;3.40;;;;;;;8.32;100.00;99744.16;110927;1222;98361;-71
2023/11/20 00:23:29;;;;;;;18.10;5.40;;;;;;;8.32;100.00;99746.30;111259;1209;97597;-71
2023/11/20 00:25:54;;;;;;;23.20;5.50;;;;;;;8.32;100.00;99744.84;110845;1206;139032;-72
2023/11/20 00:28:19;;;;;;;13.40;4.00;;;;;;;8.32;100.00;99743.08;110946;1220;97709;-71
2023/11/20 00:30:45;;;;;;;18.20;4.50;;;;;;;8.33;100.00;99740.55;110897;1209;138788;-71
2023/11/20 00:33:10;;;;;;;19.70;5.20;;;;;;;8.33;100.00;99740.35;110899;1219;97600;-71
2023/11/20 00:35:35;;;;;;;14.90;4.20;;;;;;;8.34;100.00;99742.33;111023;1208;97599;-71
2023/11/20 00:38:01;;;;;;;16.90;4.20;;;;;;;8.32;100.00;99740.79;110782;1205;139710;-72
2023/11/20 00:40:26;;;;;;;26.20;5.20;;;;;;;8.33;100.00;99746.77;111008;1211;97646;-71
2023/11/20 00:42:52;;;;;;;10.80;3.40;;;;;;;8.34;100.00;99747.83;110784;1206;138886;-71
2023/11/20 00:45:17;;;;;;;19.20;4.90;;;;;;;8.33;100.00;99755.86;110940;1205;97664;-71
2023/11/20 00:47:43;;;;;;;12.60;3.70;;;;;;;8.32;100.00;99758.92;110998;1206;97563;-71
2023/11/20 00:50:09;;;;;;;17.00;4.50;;;;;;;8.32;100.00;99758.91;110783;1211;149246;-71
2023/11/20 00:52:35;;;;;;;17.20;3.30;;;;;;;8.32;100.00;99762.65;111180;1205;100139;-71
2023/11/20 00:55:09;;;;;;;14.90;4.50;;;;;;;8.32;100.00;99758.71;110853;1205;139147;-71
2023/11/20 00:57:36;;;;;;;17.90;4.50;;;;;;;8.33;100.00;99757.83;110954;1212;97643;-71
2023/11/20 01:00:02;;;;;;;13.40;3.40;;;;;;;8.33;100.00;99761.38;111136;1208;97673;-71
2023/11/20 01:02:27;;;;;;;19.40;3.80;;;;;;;8.33;100.00;99759.05;110886;1211;138483;-71
2023/11/20 01:04:52;;;;;;;17.00;4.10;;;;;;;8.35;100.00;99750.44;110917;1211;97758;-71
2023/11/20 01:07:19;;;;;;;24.20;3.80;;;;;;;8.37;100.00;99751.58;110792;1212;139141;-71
2023/11/20 01:09:44;;;;;;;18.00;3.50;;;;;;;8.37;100.00;99754.42;110955;1210;97716;-71
2023/11/20 01:12:09;;;;;;;8.80;3.60;;;;;;;8.37;100.00;99751.23;111035;1208;97594;-71
2023/11/20 01:14:35;;;;;;;18.30;3.50;;;;;;;8.37;100.00;99752.48;110801;1206;140296;-71
2023/11/20 01:17:00;;;;;;;16.40;3.20;;;;;;;8.38;100.00;99752.43;111202;1206;98968;-71
2023/11/20 01:19:26;;;;;;;11.00;3.10;;;;;;;8.38;100.00;99751.17;110854;1221;138495;-71
2023/11/20 01:21:51;;;;;;;13.70;3.30;;;;;;;8.39;100.00;99754.69;110964;1209;97688;-71
2023/11/20 01:24:16;;;;;;;14.00;3.40;;;;;;;8.40;100.00;99754.98;110928;1208;97690;-73
2023/11/20 01:26:41;;;;;;;19.40;3.70;;;;;;;8.41;100.00;99753.89;110845;1209;138360;-71
2023/11/20 01:29:07;;;;;;;15.60;4.30;;;;;;;8.40;100.00;99752.69;111066;1209;98144;-71
2023/11/20 01:31:32;;;;;;;17.40;4.30;;;;;;;8.39;100.00;99754.84;110818;1205;139767;-71
2023/11/20 01:33:58;;;;;;;22.10;3.90;;;;;;;8.40;100.00;99750.88;110970;1209;98025;-71
2023/11/20 01:36:24;;;;;;;14.30;3.10;;;;;;;8.40;100.00;99750.91;110915;1219;141650;-71
2023/11/20 01:38:52;;;;;;;16.20;3.80;;;;;;;8.40;100.00;99751.10;110893;1208;97707;-70
2023/11/20 01:41:18;;;;;;;15.20;3.00;;;;;;;8.40;100.00;99751.62;110931;1206;97613;-70
2023/11/20 01:43:43;;;;;;;18.40;3.30;;;;;;;8.39;100.00;99748.09;110793;1209;142575;-70
2023/11/20 01:46:12;;;;;;;19.50;3.40;;;;;;;8.38;100.00;99751.19;111066;1206;97606;-71
2023/11/20 01:48:39;;;;;;;16.20;3.30;;;;;;;8.38;100.00;99748.69;110900;1208;138623;-70
2023/11/20 01:51:05;;;;;;;19.50;4.20;;;;;;;8.38;100.00;99753.30;110951;1209;97595;-70
2023/11/20 01:53:32;;;;;;;15.80;3.40;;;;;;;8.39;100.00;99754.69;110803;1206;97752;-71
2023/11/20 01:55:58;;;;;;;22.30;4.20;;;;;;;8.39;100.00;99753.81;110755;1208;139703;-71
2023/11/20 01:58:25;;;;;;;17.90;3.70;;;;;;;8.39;100.00;99752.20;111036;1206;96830;-71
2023/11/20 02:00:51;;;;;;;13.30;3.40;;;;;;;8.40;100.00;99750.73;110820;1208;138637;-71
2023/11/20 02:03:16;;;;;;;14.20;3.10;;;;;;;8.40;100.00;99752.30;110919;1206;97683;-71
2023/11/20 02:05:45;;;;;;;17.40;2.90;;;;;;;8.41;100.00;99749.61;110969;1208;97594;-71
2023/11/20 02:08:13;;;;;;;13.80;2.90;;;;;;;8.42;100.00;99750.61;110907;1207;139347;-71
2023/11/20 02:10:39;;;;;;;18.40;4.30;;;;;;;8.42;100.00;99749.38;110832;1206;108195;-71
2023/11/20 02:13:06;;;;;;;11.10;3.00;;;;;;;8.43;100.00;99749.66;110884;1209;139675;-71
2023/11/20 02:15:32;;;;;;;12.90;2.90;;;;;;;8.44;100.00;99748.91;110989;1206;97703;-71
2023/11/20 02:17:57;;;;;;;14.50;3.10;;;;;;;8.46;100.00;99751.30;111320;1209;97642;-71
2023/11/20 02:20:26;;;;;;;18.60;3.40;;;;;;;8.47;100.00;99744.33;110849;1206;140225;-72
2023/11/20 02:22:51;;;;;;;18.30;3.60;;;;;;;8.48;100.00;99748.02;110915;1206;97606;-71
2023/11/20 02:25:18;;;;;;;9.10;3.10;;;;;;;8.49;100.00;99744.23;110868;1209;138845;-72
2023/11/20 02:28:08;;;;;;;16.70;4.20;;;;;;;8.50;100.00;99739.02;110994;1206;98177;-71
2023/11/20 02:30:33;;;;;;;14.90;3.70;;;;;;;8.52;100.00;99741.04;110737;1206;139263;-72
2023/11/20 02:32:59;;;;;;;13.90;3.40;;;;;;;8.51;100.00;99740.36;110820;1207;97692;-71
2023/11/20 02:35:24;;;;;;;13.90;3.00;;;;;;;8.49;100.00;99736.90;111025;1209;97560;-72
2023/11/20 02:37:50;;;;;;;13.50;3.30;;;;;;;8.49;100.00;99735.51;110781;1208;138625;-71
2023/11/20 02:40:15;;;;;;;20.00;4.10;;;;;;;8.49;100.00;99734.61;110888;1207;97685;-71
2023/11/20 02:42:41;;;;;;;11.90;3.90;;;;;;;8.51;100.00;99737.02;110868;1208;141177;-72
2023/11/20 02:45:10;;;;;;;16.80;5.70;;;;;;;8.52;100.00;99735.55;110902;1206;97629;-71
2023/11/20 02:47:36;;;;;;;16.20;4.40;;;;;;;8.53;100.00;99730.15;110867;1206;99321;-71
2023/11/20 02:50:01;;;;;;;21.20;4.90;;;;;;;8.54;100.00;99733.48;110808;1205;139536;-72
2023/11/20 02:52:26;;;;;;;13.70;3.60;;;;;;;8.55;100.00;99737.00;111082;1206;97571;-71
2023/11/20 02:54:52;;;;;;;15.20;3.50;;;;;;;8.55;100.00;99735.03;110836;1208;138873;-71
2023/11/20 02:57:17;;;;;;;18.60;4.30;;;;;;;8.55;100.00;99734.31;110993;1208;97675;-71
2023/11/20 02:59:42;;;;;;;24.70;5.30;;;;;;;8.55;100.00;99738.95;110916;1206;97578;-72
2023/11/20 03:02:07;;;;;;;23.40;4.50;;;;;;;8.54;100.00;99738.80;110781;1210;138521;-71
2023/11/20 03:04:33;;;;;;;14.50;4.00;;;;;;;8.52;100.00;99732.66;110940;1206;96596;-71
2023/11/20 03:06:59;;;;;;;17.30;4.00;;;;;;;8.51;100.00;99733.97;110681;1211;140260;-71
2023/11/20 03:09:24;;;;;;;7.80;4.20;;;;;;;8.49;100.00;99735.16;110993;1206;98727;-71
2023/11/20 03:11:51;;;;;;;14.50;3.90;;;;;;;8.45;100.00;99736.60;110918;1208;112699;-71
2023/11/20 03:14:17;;;;;;;15.30;3.60;;;;;;;8.44;100.00;99734.66;110959;1206;140284;-72
2023/11/20 03:16:43;;;;;;;18.80;3.80;;;;;;;8.42;100.00;99736.58;110916;1212;97720;-71
2023/11/20 03:19:08;;;;;;;10.00;3.40;;;;;;;8.40;100.00;99740.02;110914;1208;139306;-71
2023/11/20 03:21:35;;;;;;;12.30;3.60;;;;;;;8.39;100.00;99747.20;110875;1212;97562;-72
2023/11/20 03:24:01;;;;;;;13.80;3.20;;;;;;;8.38;100.00;99747.05;110839;1212;97707;-72
2023/11/20 03:26:26;;;;;;;15.40;4.10;;;;;;;8.40;100.00;99749.31;110821;1205;139066;-72
2023/11/20 03:28:52;;;;;;;15.40;3.80;;;;;;;8.40;100.00;99748.95;110935;1208;97747;-71
2023/11/20 03:31:19;;;;;;;18.90;4.20;;;;;;;8.39;100.00;99745.95;110832;1206;138667;-71
2023/11/20 03:33:46;;;;;;;14.10;3.60;;;;;;;8.39;100.00;99743.45;110940;1209;97895;-71
2023/11/20 03:36:13;;;;;;;12.90;3.30;;;;;;;8.39;100.00;99741.50;110931;1206;97658;-71
2023/11/20 03:38:38;;;;;;;16.10;4.00;;;;;;;8.40;100.00;99738.09;110955;1212;141395;-71
2023/11/20 03:41:04;;;;;;;15.70;3.40;;;;;;;8.39;100.00;99734.40;110928;1206;97549;-71
2023/11/20 03:43:29;;;;;;;10.50;3.50;;;;;;;8.39;100.00;99738.83;111015;1208;138607;-71
2023/11/20 03:45:55;;;;;;;16.40;3.30;;;;;;;8.40;100.00;99733.27;111002;1206;97662;-71
2023/11/20 03:48:21;;;;;;;12.60;3.80;;;;;;;8.38;100.00;99736.20;110970;1208;96453;-71
2023/11/20 03:50:46;;;;;;;20.70;3.60;;;;;;;8.38;100.00;99734.27;110795;1209;138302;-71
2023/11/20 03:53:11;;;;;;;10.10;3.30;;;;;;;8.36;100.00;99732.04;111037;1206;97565;-71
2023/11/20 03:55:37;;;;;;;12.10;3.90;;;;;;;8.38;100.00;99729.79;110817;1208;139258;-71
2023/11/20 03:58:03;;;;;;;10.30;3.60;;;;;;;8.41;100.00;99728.78;111018;1206;97706;-71
2023/11/20 04:00:29;;;;;;;11.80;3.60;;;;;;;8.41;100.00;99728.92;111028;1206;138956;-71
2023/11/20 04:02:55;;;;;;;13.00;3.50;;;;;;;8.42;100.00;99730.70;110971;1206;98421;-71
2023/11/20 04:05:21;;;;;;;10.00;3.60;;;;;;;8.42;100.00;99727.48;111229;1206;96220;-71
2023/11/20 04:07:47;;;;;;;14.00;4.20;;;;;;;8.43;100.00;99726.89;110721;1206;139046;-71
2023/11/20 04:10:13;;;;;;;11.20;3.90;;;;;;;8.43;100.00;99725.11;110948;1206;97593;-71
2023/11/20 04:12:38;;;;;;;17.10;4.10;;;;;;;8.43;100.00;99721.34;110811;1206;138951;-71
2023/11/20 04:15:04;;;;;;;15.00;3.60;;;;;;;8.45;100.00;99723.59;111043;1208;97704;-71
2023/11/20 04:17:29;;;;;;;13.00;4.00;;;;;;;8.42;100.00;99716.96;111191;1206;97448;-71
2023/11/20 04:19:55;;;;;;;11.10;3.10;;;;;;;8.42;100.00;99713.77;110823;1209;139254;-71
2023/11/20 04:22:21;;;;;;;14.60;3.80;;;;;;;8.42;100.00;99711.42;110777;1206;97648;-71
2023/11/20 04:24:46;;;;;;;9.60;4.00;;;;;;;8.42;100.00;99707.55;110811;1208;138872;-71
2023/11/20 04:27:12;;;;;;;9.90;3.40;;;;;;;8.41;100.00;99704.36;111020;1206;97654;-71
2023/11/20 04:29:38;;;;;;;19.20;3.60;;;;;;;8.41;100.00;99708.48;111019;1206;107166;-71
2023/11/20 04:32:04;;;;;;;15.30;4.00;;;;;;;8.41;100.00;99704.04;110849;1209;139681;-71
2023/11/20 04:34:29;;;;;;;13.40;4.00;;;;;;;8.42;100.00;99708.98;111139;1208;97610;-72
2023/11/20 04:36:54;;;;;;;10.00;4.10;;;;;;;8.43;100.00;99709.83;110840;1206;138707;-71
2023/11/20 04:39:20;;;;;;;17.90;5.10;;;;;;;8.44;100.00;99707.96;110814;1209;97607;-71
2023/11/20 04:41:45;;;;;;;14.80;4.70;;;;;;;8.45;100.00;99703.46;110969;1206;97683;-71
2023/11/20 04:44:10;;;;;;;12.30;4.20;;;;;;;8.46;100.00;99702.89;110852;1209;139111;-71
2023/11/20 04:46:37;;;;;;;15.80;5.40;;;;;;;8.46;100.00;99700.02;111030;1212;97554;-71
2023/11/20 04:49:02;;;;;;;21.40;5.50;;;;;;;8.47;100.00;99696.61;110833;1219;139270;-70
2023/11/20 04:51:28;;;;;;;14.30;4.90;;;;;;;8.46;100.00;99695.77;110908;1210;98167;-71
2023/11/20 04:53:53;;;;;;;13.80;5.00;;;;;;;8.46;100.00;99698.27;110981;1212;97714;-71
2023/11/20 04:56:18;;;;;;;11.20;4.30;;;;;;;8.47;100.00;99701.75;110680;1209;139931;-71
2023/11/20 04:58:45;;;;;;;14.70;5.60;;;;;;;8.49;100.00;99700.25;110986;1205;98537;-71
2023/11/20 05:01:11;;;;;;;15.90;5.10;;;;;;;8.49;100.00;99702.41;110798;1209;139359;-71
2023/11/20 05:03:37;;;;;;;19.20;6.70;;;;;;;8.49;100.00;99699.02;110892;1212;98519;-72
2023/11/20 05:06:07;;;;;;;18.70;5.70;;;;;;;8.47;100.00;99700.15;110870;1211;98947;-71
2023/11/20 05:08:32;;;;;;;16.80;6.50;;;;;;;8.43;100.00;99699.45;110759;1210;139061;-71
2023/11/20 05:10:58;;;;;;;15.60;5.10;;;;;;;8.42;100.00;99700.40;110934;1206;97913;-71
2023/11/20 05:13:23;;;;;;;17.20;6.00;;;;;;;8.43;100.00;99700.72;110872;1210;139074;-72
2023/11/20 05:15:48;;;;;;;18.10;6.00;;;;;;;8.45;100.00;99702.92;110849;1208;97672;-72
2023/11/20 05:18:15;;;;;;;12.80;5.20;;;;;;;8.45;100.00;99701.01;110902;1206;96661;-71
2023/11/20 05:20:40;;;;;;;19.20;5.80;;;;;;;8.46;100.00;99702.72;110746;1205;138703;-71
2023/11/20 05:23:06;;;;;;;15.70;5.40;;;;;;;8.47;100.00;99706.05;110796;1206;98178;-71
2023/11/20 05:25:32;;;;;;;14.90;4.90;;;;;;;8.46;100.00;99706.80;110859;1210;139119;-71
2023/11/20 05:27:57;;;;;;;12.10;5.30;;;;;;;8.45;100.00;99705.77;110854;1206;96158;-71
2023/11/20 05:30:23;;;;;;;13.40;5.30;;;;;;;8.46;100.00;99706.63;110920;1209;98105;-71
2023/11/20 05:32:48;;;;;;;12.70;4.90;;;;;;;8.48;100.00;99705.09;110844;1208;140301;-72
2023/11/20 05:35:14;;;;;;;15.40;4.40;;;;;;;8.48;100.00;99706.02;110890;1209;97814;-71
2023/11/20 05:37:39;;;;;;;15.20;5.70;;;;;;;8.49;100.00;99703.11;110942;1206;140122;-71
2023/11/20 05:40:07;;;;;;;18.50;6.10;;;;;;;8.49;100.00;99705.06;110794;1206;97699;-72
2023/11/20 05:42:32;;;;;;;13.60;4.90;;;;;;;8.48;100.00;99704.24;110791;1212;138831;-71
2023/11/20 05:44:58;;;;;;;19.10;5.50;;;;;;;8.48;100.00;99704.05;110851;1208;97577;-70
2023/11/20 05:47:23;;;;;;;20.30;5.80;;;;;;;8.48;100.00;99706.73;111033;1208;97692;-70
2023/11/20 05:49:51;;;;;;;13.50;5.00;;;;;;;8.48;100.00;99705.98;110685;1206;139383;-71
2023/11/20 05:52:16;;;;;;;19.10;5.70;;;;;;;8.49;100.00;99710.73;110917;1206;97731;-71
2023/11/20 05:54:41;;;;;;;16.70;5.60;;;;;;;8.47;100.00;99708.53;110866;1206;139268;-71
2023/11/20 05:57:07;;;;;;;14.60;5.40;;;;;;;8.46;100.00;99709.81;110984;1206;111871;-71
2023/11/20 05:59:32;;;;;;;23.80;6.60;;;;;;;8.47;100.00;99710.85;111002;1206;97776;-71
2023/11/20 06:01:58;;;;;;;19.70;6.60;;;;;;;8.51;100.00;99712.83;110636;1208;138648;-71
2023/11/20 06:04:24;;;;;;;18.00;6.00;;;;;;;8.51;100.00;99710.81;110805;1206;97546;-72
2023/11/20 06:06:50;;;;;;;17.70;6.30;;;;;;;8.52;100.00;99713.46;110879;1206;138898;-71
2023/11/20 06:09:15;;;;;;;13.50;6.70;;;;;;;8.53;100.00;99718.06;110970;1208;97594;-71
2023/11/20 06:11:43;;;;;;;14.10;6.50;;;;;;;8.52;100.00;99720.07;110958;1206;99284;-71
2023/11/20 06:14:09;;;;;;;14.50;6.70;;;;;;;8.49;100.00;99717.50;110911;1208;138526;-71
2023/11/20 06:16:34;;;;;;;16.60;6.40;;;;;;;8.50;100.00;99721.02;110986;1206;97575;-71
2023/11/20 06:19:00;;;;;;;23.60;7.20;;;;;;;8.50;100.00;99720.70;110880;1209;140643;-72
2023/11/20 06:21:26;;;;;;;16.60;6.70;;;;;;;8.51;100.00;99721.34;111038;1206;97603;-72
2023/11/20 06:23:52;;;;;;;21.30;7.50;;;;;;;8.50;100.00;99722.09;110908;1206;97699;-71
2023/11/20 06:26:17;;;;;;;19.00;7.10;;;;;;;8.51;100.00;99724.21;110865;1206;139241;-71
2023/11/20 06:28:44;;;;;;;23.10;7.50;;;;;;;8.51;100.00;99720.98;110936;1206;97711;-72
2023/11/20 06:31:13;;;;;;;20.00;7.10;;;;;;;8.50;100.00;99721.41;110885;1209;140394;-71
2023/11/20 06:33:39;;;;;;;20.50;8.60;;;;;;;8.50;100.00;99722.47;110918;1206;97869;-71
2023/11/20 06:36:06;;;;;;;15.20;7.20;;;;;;;8.51;100.00;99724.00;110910;1210;97698;-71
2023/11/20 06:38:33;;;;;;;18.20;7.50;;;;;;;8.52;100.00;99727.53;110959;1206;138673;-71
2023/11/20 06:40:58;;;;;;;14.80;7.20;;;;;;;8.52;100.00;99728.94;111046;1209;99143;-71
2023/11/20 06:43:24;;;;;;;16.60;6.80;;;;;;;8.53;100.00;99732.64;110812;1219;139211;-71
2023/11/20 06:45:49;;;;;;;16.50;7.00;;;;;;;8.54;100.00;99732.92;110875;1208;97722;-71
2023/11/20 06:48:14;;;;;;;24.90;6.80;;;;;;;8.54;100.00;99731.33;110930;1206;97635;-71
2023/11/20 06:50:40;;;;;;;14.40;7.70;;;;;;;8.53;100.00;99732.98;110743;1209;139623;-69
2023/11/20 06:53:06;;;;;;;20.40;7.00;;;;;;;8.50;100.00;99737.78;111062;1206;98039;-68
2023/11/20 06:55:32;;;;;;;17.70;7.30;;;;;;;8.46;100.00;99740.80;110728;1206;139375;-68
2023/11/20 06:57:58;;;;;;;18.10;7.60;;;;;;;8.44;100.00;99739.83;110773;1206;97661;-68
2023/11/20 07:00:23;;;;;;;24.80;8.30;;;;;;;8.43;100.00;99747.35;110977;1206;95076;-68
2023/11/20 07:02:48;;;;;;;35.20;9.50;;;;;;;8.42;100.00;99750.82;110723;1209;139108;-68
2023/11/20 07:05:17;;;;;;;21.40;9.00;;;;;;;8.37;100.00;99750.33;110979;1208;97597;-68
2023/11/20 07:07:54;;;;;;;23.30;8.60;;;;;;;8.39;100.00;99752.34;110760;1208;138502;-68
2023/11/20 07:10:23;;;;;;;24.20;8.50;;;;;;;8.41;100.00;99749.41;110981;1209;97690;-68
2023/11/20 07:12:52;;;;;;;24.70;9.60;;;;;;;8.42;100.00;99740.48;110796;1206;139450;-68
2023/11/20 07:15:18;;;;;;;25.10;9.10;;;;;;;8.41;100.00;99746.05;111038;1212;100277;-67
2023/11/20 07:17:43;;;;;;;25.20;8.90;;;;;;;8.40;100.00;99751.23;110930;1206;98235;-68
2023/11/20 07:20:10;;;;;;;27.00;9.50;;;;;;;8.42;100.00;99752.95;110956;1209;140235;-67
2023/11/20 07:22:36;;;;;;;24.90;9.00;;;;;;;8.44;100.00;99753.70;111128;1206;112162;-67
2023/11/20 07:25:01;;;;;;;25.50;9.20;;;;;;;8.47;100.00;99753.23;110812;1206;139416;-68
2023/11/20 07:27:27;;;;;;;24.50;8.80;;;;;;;8.48;100.00;99755.15;110995;1209;98355;-69
2023/11/20 07:29:52;;;;;;;55.30;10.30;;;;;;;8.49;100.00;99756.52;110766;1206;96184;-69
2023/11/20 07:32:17;;;;;;;29.00;9.20;;;;;;;8.51;100.00;99756.23;110478;1212;138891;-69
2023/11/20 07:34:43;;;;;;;37.90;8.90;;;;;;;8.52;100.00;99757.41;110828;1208;108786;-68
2023/11/20 07:37:08;;;;;;;23.10;7.70;;;;;;;8.51;100.00;99760.32;110826;1206;139108;-70
2023/11/20 07:39:33;;;;;;;18.60;8.50;;;;;;;8.50;100.00;99760.91;111064;1209;97710;-68
2023/11/20 07:42:00;;;;;;;27.90;10.40;;;;;;;8.52;100.00;99762.77;110937;1206;98965;-67
2023/11/20 07:44:26;;;;;;;24.90;8.30;;;;;;;8.56;100.00;99759.21;110666;1212;138774;-67
2023/11/20 07:46:52;;;;;;;42.50;10.30;;;;;;;8.57;100.00;99762.16;110994;1209;97614;-66
2023/11/20 07:49:18;;;;;;;34.20;10.80;;;;;;;8.59;100.00;99764.05;110876;1206;138672;-68
2023/11/20 07:51:44;;;;;;;27.60;9.50;;;;;;;8.61;100.00;99763.06;111020;1212;97595;-66
2023/11/20 07:54:09;;;;;;;24.40;9.20;;;;;;;8.62;100.00;99764.58;111081;1209;97616;-67
2023/11/20 07:56:35;;;;;;;25.70;10.10;;;;;;;8.64;100.00;99767.89;110841;1205;139579;-68
2023/11/20 07:59:01;;;;;;;32.30;12.10;;;;;;;8.66;100.00;99770.63;110807;1212;99320;-68
2023/11/20 08:01:26;;;;;;;30.70;10.70;;;;;;;8.67;100.00;99764.67;110887;1205;139176;-71
2023/11/20 08:03:51;;;;;;;29.30;10.90;;;;;;;8.70;100.00;99766.67;111105;1208;97658;-67
2023/11/20 08:06:19;;;;;;;29.30;11.30;;;;;;;8.73;100.00;99769.91;110965;1206;97590;-68
2023/11/20 08:08:45;;;;;;;27.90;10.90;;;;;;;8.74;100.00;99769.48;110887;1209;139256;-67
2023/11/20 08:11:10;;;;;;;27.40;12.40;;;;;;;8.76;100.00;99768.52;110623;1208;97681;-67
2023/11/20 08:13:36;;;;;;;23.80;11.60;;;;;;;8.77;100.00;99762.23;110834;1205;139818;-67
2023/11/20 08:16:02;;;;;;;26.80;11.30;;;;;;;8.83;100.00;99766.60;110778;1208;99190;-68
2023/11/20 08:18:28;;;;;;;27.70;12.10;;;;;;;8.86;100.00;99769.10;110775;1208;100135;-67
2023/11/20 08:20:54;;;;;;;33.50;12.00;;;;;;;8.89;100.00;99767.70;110608;1208;139219;-67
2023/11/20 08:23:20;;;;;;;22.60;11.40;;;;;;;8.92;100.00;99769.69;110619;1205;102483;-68
2023/11/20 08:25:45;;;;;;;27.20;12.40;;;;;;;8.94;100.00;99771.18;110641;1209;139676;-68
2023/11/20 08:28:11;;;;;;;21.50;11.80;;;;;;;8.97;100.00;99772.64;110687;1206;97606;-69
2023/11/20 08:30:36;;;;;;;31.40;12.20;;;;;;;8.99;100.00;99771.64;110658;1219;140328;-68
2023/11/20 08:33:01;;;;;;;29.30;12.90;;;;;;;9.01;100.00;99772.96;110677;1208;103402;-68
2023/11/20 08:35:27;;;;;;;24.40;11.80;;;;;;;9.02;100.00;99774.13;110837;1206;97724;-68
2023/11/20 08:37:52;;;;;;;22.50;11.70;;;;;;;9.05;100.00;99768.50;110756;1209;138641;-67
2023/11/20 08:40:18;;;;;;;29.90;11.80;;;;;;;9.07;100.00;99763.58;110958;1208;97599;-68
2023/11/20 08:42:43;;;;;;;25.10;12.20;;;;;;;9.09;100.00;99757.58;110708;1219;139579;-67
2023/11/20 08:45:10;;;;;;;22.50;11.40;;;;;;;9.12;100.00;99753.16;110173;1208;98190;-68
2023/11/20 08:47:35;;;;;;;29.20;11.60;;;;;;;9.14;100.00;99751.77;110910;1206;97578;-67
2023/11/20 08:50:09;;;;;;;25.80;12.00;;;;;;;9.17;100.00;99747.91;110775;1208;146469;-68
2023/11/20 08:52:35;;;;;;;22.10;10.80;;;;;;;9.19;100.00;99746.54;110818;1206;112218;-67
2023/11/20 08:55:00;;;;;;;27.60;12.00;;;;;;;9.22;100.00;99750.67;110794;1206;139078;-69
2023/11/20 08:57:25;;;;;;;24.40;12.60;;;;;;;9.25;100.00;99748.73;110959;1208;98506;-68
2023/11/20 08:59:51;;;;;;;23.30;12.80;;;;;;;9.28;100.00;99753.19;110650;1206;97577;-67
2023/11/20 09:02:16;;;;;;;28.40;13.70;;;;;;;9.32;100.00;99756.40;110803;1206;138752;-67
2023/11/20 09:04:42;;;;;;;31.80;14.00;;;;;;;9.34;100.00;99754.32;110450;1208;108095;-68
2023/11/20 09:07:08;;;;;;;26.60;15.80;;;;;;;9.37;100.00;99756.81;110754;1206;139745;-68
2023/11/20 09:09:35;;;;;;;29.20;15.60;;;;;;;9.41;100.00;99760.33;113373;1205;95986;-68
2023/11/20 09:12:03;;;;;;;31.70;14.90;;;;;;;9.45;100.00;99755.17;113122;1205;99566;-68
2023/11/20 09:14:28;;;;;;;23.80;13.00;;;;;;;9.51;100.00;99755.76;113017;1205;139656;-68
2023/11/20 09:16:54;;;;;;;22.70;13.60;;;;;;;9.53;100.00;99757.23;113114;1205;95914;-69
2023/11/20 09:19:19;;;;;;;24.40;13.60;;;;;;;9.55;100.00;99755.70;113189;1206;139748;-67
2023/11/20 09:21:45;;;;;;;19.80;12.30;;;;;;;9.58;100.00;99751.80;110825;1208;97408;-67
2023/11/20 09:24:11;;;;;;;21.10;12.50;;;;;;;9.59;100.00;99753.34;111019;1206;97665;-67
2023/11/20 09:26:36;;;;;;;23.10;12.40;;;;;;;9.62;100.00;99747.63;110880;1206;139315;-68
2023/11/20 09:29:03;;;;;;;22.60;11.20;;;;;;;9.66;100.00;99746.38;110876;1208;97786;-68
2023/11/20 09:31:30;;;;;;;27.60;13.20;;;;;;;9.66;100.00;99748.14;110736;1208;139307;-67
2023/11/20 09:33:56;;;;;;;17.40;11.40;;;;;;;9.66;100.00;99742.45;110910;1208;97768;-69
2023/11/20 09:36:21;;;;;;;24.40;11.30;;;;;;;9.67;100.00;99741.65;110921;1206;97527;-71
2023/11/20 09:38:47;;;;;;;19.80;11.90;;;;;;;9.70;100.00;99740.81;110766;1206;138650;-69
2023/11/20 09:41:14;;;;;;;20.30;11.90;;;;;;;9.72;100.00;99740.66;110887;1209;97766;-68
2023/11/20 09:43:41;;;;;;;24.10;13.20;;;;;;;9.74;100.00;99739.66;110984;1205;139044;-69
2023/11/20 09:46:11;;;;;;;22.90;13.30;;;;;;;9.74;100.00;99739.66;111022;1206;97646;-69
2023/11/20 09:48:38;;;;;;;30.80;13.00;;;;;;;9.76;100.00;99742.98;110877;1206;141576;-70
2023/11/20 09:51:07;;;;;;;25.40;13.20;;;;;;;9.78;100.00;99743.56;111043;1206;99407;-67
2023/11/20 09:53:34;;;;;;;19.40;11.80;;;;;;;9.82;100.00;99743.88;110969;1206;107742;-69
2023/11/20 09:56:01;;;;;;;19.40;11.50;;;;;;;9.84;100.00;99735.05;110852;1206;140404;-68
2023/11/20 09:58:29;;;;;;;21.00;10.40;;;;;;;9.89;100.00;99733.17;110431;1209;105948;-66
2023/11/20 10:01:03;;;;;;;23.50;12.30;;;;;;;9.93;100.00;99734.91;110915;1205;139768;-68
2023/11/20 10:03:29;;;;;;;21.70;12.10;;;;;;;9.95;100.00;99733.17;111015;1206;99775;-68
2023/11/20 10:05:59;;;;;;;21.30;11.70;;;;;;;10.01;100.00;99735.34;111088;1208;98876;-67
2023/11/20 10:08:27;;;;;;;28.80;14.80;;;;;;;10.02;100.00;99736.32;110640;1205;139094;-68
2023/11/20 10:10:52;;;;;;;19.30;11.80;;;;;;;10.04;100.00;99728.38;110918;1208;97843;-68
2023/11/20 10:13:18;;;;;;;23.30;12.40;;;;;;;10.07;100.00;99730.50;110752;1205;139841;-68
2023/11/20 10:15:45;;;;;;;35.00;12.80;;;;;;;10.11;100.00;99722.09;110864;1209;99938;-67
2023/11/20 10:18:11;;;;;;;19.90;10.20;;;;;;;10.15;100.00;99721.36;110972;1208;100051;-68
2023/11/20 10:21:11;;;;;;;21.50;11.90;;;;;;;10.17;100.00;99716.98;110896;1204;139251;-68
2023/11/20 10:23:37;;;;;;;20.00;10.70;;;;;;;10.20;100.00;99719.30;110729;1206;112683;-66
2023/11/20 10:26:05;;;;;;;19.90;9.90;;;;;;;10.21;100.00;99718.02;110700;1208;140053;-66
2023/11/20 10:28:30;;;;;;;28.10;10.50;;;;;;;10.24;100.00;99713.54;111013;1206;97675;-65
2023/11/20 10:30:56;;;;;;;19.70;10.40;;;;;;;10.26;100.00;99715.40;110657;1206;138129;-66
2023/11/20 10:33:21;;;;;;;17.30;10.50;;;;;;;10.26;100.00;99712.16;110936;1208;111298;-66
2023/11/20 10:35:48;;;;;;;23.60;10.40;;;;;;;10.28;100.00;99709.20;110928;1208;97743;-68
2023/11/20 10:38:15;;;;;;;20.10;11.40;;;;;;;10.30;100.00;99713.02;113044;1205;140510;-67
2023/11/20 10:40:44;;;;;;;22.10;12.00;;;;;;;10.30;100.00;99711.56;113188;1205;95846;-67
2023/11/20 10:43:10;;;;;;;17.50;10.70;;;;;;;10.31;100.00;99708.66;112961;1206;139483;-67
2023/11/20 10:45:36;;;;;;;16.80;10.50;;;;;;;10.32;100.00;99704.34;111729;1206;97385;-66
2023/11/20 10:48:07;;;;;;;13.90;9.00;;;;;;;10.35;100.00;99708.24;110851;1211;97703;-69
2023/11/20 10:50:37;;;;;;;10.80;8.20;;;;;;;10.37;100.00;99707.08;110809;1209;139447;-67
2023/11/20 10:53:07;;;;;;;9.80;7.10;;;;;;;10.39;100.00;99702.33;110526;1206;97582;-67
2023/11/20 10:55:43;;;;;;;11.20;6.90;;;;;;;10.41;100.00;99699.84;110552;1206;139679;-67
2023/11/20 10:58:10;;;;;;;10.30;7.00;;;;;;;10.41;100.00;99695.89;110809;1209;100197;-65
2023/11/20 11:00:39;;;;;;;10.30;6.90;;;;;;;10.43;100.00;99695.45;110776;1209;139760;-66
2023/11/20 11:03:06;;;;;;;9.50;6.70;;;;;;;10.41;100.00;99693.02;110816;1209;97706;-66
2023/11/20 11:05:39;;;;;;;12.70;6.60;;;;;;;10.41;100.00;99689.83;110760;1210;97991;-66
2023/11/20 11:08:09;;;;;;;8.80;6.40;;;;;;;10.41;100.00;99689.30;110594;1209;139231;-67